Time,TemperatureF,DewpointF,PressureIn,WindDirection,WindDirectionDegrees,WindSpeedMPH,WindSpeedGustMPH,Humidity,HourlyPrecipIn,Conditions,Clouds,dailyrainin,SoftwareType,DateUTC
2013-07-17 00:02:00,69.1,66.4,30.31,ESE,122,0.0,0.0,91,0.00,,,0.12,meteohub,2013-07-17 04:02:00,
2013-07-17 00:07:00,69.1,66.7,30.31,ESE,122,0.0,0.0,92,0.00,,,0.00,meteohub,2013-07-17 04:07:00,
2013-07-17 00:22:00,69.1,66.7,30.28,ENE,78,0.0,0.0,92,0.00,,,0.00,meteohub,2013-07-17 04:22:00,
2013-07-17 00:27:00,69.1,66.9,30.28,SSE,168,0.0,0.0,93,0.00,,,0.00,meteohub,2013-07-17 04:27:00,
2013-07-17 00:32:00,69.1,66.9,30.28,ENE,78,0.0,0.0,93,0.00,,,0.00,meteohub,2013-07-17 04:32:00,
2013-07-17 00:37:00,69.1,66.9,30.28,South,190,0.0,0.0,93,0.00,,,0.00,meteohub,2013-07-17 04:37:00,
2013-07-17 00:42:00,68.9,66.7,30.28,WNW,302,0.0,0.0,93,0.00,,,0.00,meteohub,2013-07-17 04:42:00,
2013-07-17 00:47:00,68.9,66.7,30.28,NW,325,0.0,0.0,93,0.00,,,0.00,meteohub,2013-07-17 04:47:00,
2013-07-17 00:52:00,68.9,66.7,30.28,NNW,348,0.0,0.0,93,0.00,,,0.00,meteohub,2013-07-17 04:52:00,
2013-07-17 00:57:00,68.7,66.6,30.28,NNW,348,0.0,4.0,93,0.00,,,0.00,meteohub,2013-07-17 04:57:00,
2013-07-17 01:02:00,68.5,66.4,30.28,NNW,348,0.0,4.0,93,0.00,,,0.00,meteohub,2013-07-17 05:02:00,
2013-07-17 01:07:00,68.5,66.4,30.28,WNW,302,0.0,4.0,93,0.00,,,0.00,meteohub,2013-07-17 05:07:00,
2013-07-17 01:12:00,68.4,66.2,30.28,West,280,0.0,2.0,93,0.00,,,0.00,meteohub,2013-07-17 05:12:00,
2013-07-17 01:17:00,68.4,66.6,30.28,West,280,0.0,2.0,94,0.00,,,0.00,meteohub,2013-07-17 05:17:00,
2013-07-17 01:22:00,68.5,66.7,30.28,West,280,0.0,0.0,94,0.00,,,0.00,meteohub,2013-07-17 05:22:00,
2013-07-17 01:27:00,68.5,66.7,30.28,West,280,0.0,0.0,94,0.00,,,0.00,meteohub,2013-07-17 05:27:00,
2013-07-17 01:32:00,68.4,66.6,30.28,West,280,0.0,0.0,94,0.00,,,0.00,meteohub,2013-07-17 05:32:00,
2013-07-17 01:37:00,68.4,66.6,30.28,South,190,0.0,0.0,94,0.00,,,0.00,meteohub,2013-07-17 05:37:00,
2013-07-17 01:42:00,68.4,66.6,30.28,NNW,348,2.0,0.0,94,0.00,,,0.00,meteohub,2013-07-17 05:42:00,
2013-07-17 01:47:00,68.2,66.4,30.28,NNW,348,0.0,3.0,94,0.00,,,0.00,meteohub,2013-07-17 05:47:00,
2013-07-17 01:52:00,68.2,66.4,30.28,NW,325,0.0,3.0,94,0.00,,,0.00,meteohub,2013-07-17 05:52:00,
2013-07-17 01:57:00,68.2,66.4,30.28,NNE,32,0.0,3.0,94,0.00,,,0.00,meteohub,2013-07-17 05:57:00,
2013-07-17 02:02:00,68.2,66.4,30.28,WSW,258,0.0,3.0,94,0.00,,,0.00,meteohub,2013-07-17 06:02:00,
2013-07-17 02:07:00,68.0,66.2,30.28,WNW,302,0.0,3.0,94,0.00,,,0.00,meteohub,2013-07-17 06:07:00,
2013-07-17 02:12:00,68.0,66.6,30.28,NW,325,0.0,0.0,95,0.00,,,0.00,meteohub,2013-07-17 06:12:00,
2013-07-17 02:17:00,68.0,66.6,30.28,West,280,0.0,0.0,95,0.00,,,0.00,meteohub,2013-07-17 06:17:00,
2013-07-17 02:22:00,68.0,66.6,30.28,West,280,0.0,0.0,95,0.00,,,0.00,meteohub,2013-07-17 06:22:00,
2013-07-17 02:27:00,68.0,66.6,30.28,SE,145,0.0,0.0,95,0.00,,,0.00,meteohub,2013-07-17 06:27:00,
2013-07-17 02:32:00,68.0,66.6,30.28,SE,145,0.0,0.0,95,0.00,,,0.00,meteohub,2013-07-17 06:32:00,
2013-07-17 02:37:00,68.0,66.6,30.28,ENE,78,0.0,0.0,95,0.00,,,0.00,meteohub,2013-07-17 06:37:00,
2013-07-17 02:42:00,68.0,66.6,30.31,NNE,32,0.0,0.0,95,0.00,,,0.00,meteohub,2013-07-17 06:42:00,
2013-07-17 02:47:00,68.0,66.6,30.31,NE,55,0.0,0.0,95,0.00,,,0.00,meteohub,2013-07-17 06:47:00,
2013-07-17 02:52:00,68.0,66.6,30.31,ENE,78,0.0,0.0,95,0.00,,,0.00,meteohub,2013-07-17 06:52:00,
2013-07-17 02:57:00,68.0,66.6,30.28,ENE,78,0.0,0.0,95,0.00,,,0.00,meteohub,2013-07-17 06:57:00,
2013-07-17 03:02:00,68.0,66.6,30.28,ENE,78,0.0,0.0,95,0.00,,,0.00,meteohub,2013-07-17 07:02:00,
2013-07-17 03:07:00,67.8,66.4,30.28,ENE,78,0.0,0.0,95,0.00,,,0.00,meteohub,2013-07-17 07:07:00,
2013-07-17 03:12:00,67.8,66.6,30.28,ENE,78,0.0,0.0,96,0.00,,,0.00,meteohub,2013-07-17 07:12:00,
2013-07-17 03:17:00,67.8,66.6,30.28,ENE,78,0.0,0.0,96,0.00,,,0.00,meteohub,2013-07-17 07:17:00,
2013-07-17 03:22:00,67.8,66.6,30.28,ENE,78,0.0,0.0,96,0.00,,,0.00,meteohub,2013-07-17 07:22:00,
2013-07-17 03:27:00,67.8,66.6,30.28,ENE,78,0.0,0.0,96,0.00,,,0.00,meteohub,2013-07-17 07:27:00,
2013-07-17 03:32:00,67.6,66.4,30.28,ENE,78,0.0,0.0,96,0.00,,,0.00,meteohub,2013-07-17 07:32:00,
2013-07-17 03:37:00,67.8,66.6,30.28,ENE,78,0.0,0.0,96,0.00,,,0.00,meteohub,2013-07-17 07:37:00,
2013-07-17 03:42:00,67.8,66.6,30.28,ENE,78,0.0,0.0,96,0.00,,,0.00,meteohub,2013-07-17 07:42:00,
2013-07-17 03:47:00,67.8,66.6,30.28,ENE,78,0.0,0.0,96,0.00,,,0.00,meteohub,2013-07-17 07:47:00,
2013-07-17 03:52:00,67.8,66.6,30.28,ENE,78,0.0,0.0,96,0.00,,,0.00,meteohub,2013-07-17 07:52:00,
2013-07-17 03:57:00,67.6,66.4,30.28,ENE,78,0.0,0.0,96,0.00,,,0.00,meteohub,2013-07-17 07:57:00,
2013-07-17 04:02:00,67.8,66.6,30.28,ENE,78,0.0,0.0,96,0.00,,,0.00,meteohub,2013-07-17 08:02:00,
2013-07-17 04:07:00,67.6,66.4,30.28,ENE,78,0.0,0.0,96,0.00,,,0.00,meteohub,2013-07-17 08:07:00,
2013-07-17 04:12:00,67.6,66.4,30.25,ENE,78,0.0,0.0,96,0.00,,,0.00,meteohub,2013-07-17 08:12:00,
2013-07-17 04:17:00,67.5,66.2,30.25,North,10,0.0,0.0,96,0.00,,,0.00,meteohub,2013-07-17 08:17:00,
2013-07-17 04:22:00,67.5,66.2,30.25,NNW,348,0.0,0.0,96,0.00,,,0.00,meteohub,2013-07-17 08:22:00,
2013-07-17 04:27:00,67.5,66.2,30.28,NW,325,0.0,0.0,96,0.00,,,0.00,meteohub,2013-07-17 08:27:00,
2013-07-17 04:32:00,67.3,66.0,30.28,NW,325,0.0,4.0,96,0.00,,,0.00,meteohub,2013-07-17 08:32:00,
2013-07-17 04:37:00,67.1,65.8,30.28,NW,325,0.0,4.0,96,0.00,,,0.00,meteohub,2013-07-17 08:37:00,
2013-07-17 04:42:00,67.1,65.8,30.28,North,10,0.0,4.0,96,0.00,,,0.00,meteohub,2013-07-17 08:42:00,
2013-07-17 04:47:00,67.3,66.0,30.28,North,10,0.0,2.0,96,0.00,,,0.00,meteohub,2013-07-17 08:47:00,
2013-07-17 04:52:00,67.1,65.8,30.28,NNW,348,0.0,0.0,96,0.00,,,0.00,meteohub,2013-07-17 08:52:00,
2013-07-17 04:57:00,67.1,65.8,30.28,NW,325,0.0,0.0,96,0.00,,,0.00,meteohub,2013-07-17 08:57:00,
2013-07-17 05:02:00,66.9,65.7,30.28,North,10,0.0,0.0,96,0.00,,,0.00,meteohub,2013-07-17 09:02:00,
2013-07-17 05:07:00,66.9,65.7,30.28,North,10,0.0,0.0,96,0.00,,,0.00,meteohub,2013-07-17 09:07:00,
2013-07-17 05:12:00,66.9,66.0,30.28,North,10,0.0,0.0,97,0.00,,,0.00,meteohub,2013-07-17 09:12:00,
2013-07-17 05:17:00,67.1,66.2,30.28,NNE,32,0.0,0.0,97,0.00,,,0.00,meteohub,2013-07-17 09:17:00,
2013-07-17 05:22:00,67.1,66.2,30.28,NNE,32,0.0,0.0,97,0.00,,,0.00,meteohub,2013-07-17 09:22:00,
2013-07-17 05:27:00,66.9,66.0,30.28,NNE,32,0.0,0.0,97,0.00,,,0.00,meteohub,2013-07-17 09:27:00,
2013-07-17 05:32:00,67.1,66.2,30.28,NNE,32,0.0,0.0,97,0.00,,,0.00,meteohub,2013-07-17 09:32:00,
2013-07-17 05:37:00,67.1,66.2,30.28,NNE,32,0.0,0.0,97,0.00,,,0.00,meteohub,2013-07-17 09:37:00,
2013-07-17 05:42:00,66.9,66.0,30.28,West,280,0.0,0.0,97,0.00,,,0.00,meteohub,2013-07-17 09:42:00,
2013-07-17 05:47:00,66.7,65.8,30.28,WSW,258,0.0,0.0,97,0.00,,,0.00,meteohub,2013-07-17 09:47:00,
2013-07-17 05:52:00,66.9,66.0,30.28,SE,145,0.0,0.0,97,0.00,,,0.00,meteohub,2013-07-17 09:52:00,
2013-07-17 06:02:00,66.7,65.8,30.28,ESE,122,0.0,0.0,97,0.00,,,0.00,meteohub,2013-07-17 10:02:00,
2013-07-17 06:07:00,66.7,65.8,30.28,WNW,302,0.0,0.0,97,0.00,,,0.00,meteohub,2013-07-17 10:07:00,
2013-07-17 06:12:00,66.7,65.8,30.28,NNW,348,0.0,0.0,97,0.00,,,0.00,meteohub,2013-07-17 10:12:00,
2013-07-17 06:17:00,66.7,65.8,30.28,NW,325,0.0,0.0,97,0.00,,,0.00,meteohub,2013-07-17 10:17:00,
2013-07-17 06:22:00,66.7,65.8,30.28,NW,325,0.0,0.0,97,0.00,,,0.00,meteohub,2013-07-17 10:22:00,
2013-07-17 06:27:00,66.7,65.8,30.28,ENE,78,0.0,0.0,97,0.00,,,0.00,meteohub,2013-07-17 10:27:00,
2013-07-17 06:32:00,66.7,65.8,30.28,ENE,78,0.0,0.0,97,0.00,,,0.00,meteohub,2013-07-17 10:32:00,
2013-07-17 06:37:00,66.7,65.8,30.28,ESE,122,0.0,0.0,97,0.00,,,0.00,meteohub,2013-07-17 10:37:00,
2013-07-17 06:42:00,66.7,65.8,30.28,SE,145,0.0,0.0,97,0.00,,,0.00,meteohub,2013-07-17 10:42:00,
2013-07-17 06:47:00,66.7,65.8,30.28,NW,325,0.0,4.0,97,0.00,,,0.00,meteohub,2013-07-17 10:47:00,
2013-07-17 06:52:00,66.7,65.8,30.28,NW,325,0.0,4.0,97,0.00,,,0.00,meteohub,2013-07-17 10:52:00,
2013-07-17 06:57:00,66.7,65.8,30.28,WNW,302,0.0,4.0,97,0.00,,,0.00,meteohub,2013-07-17 10:57:00,
2013-07-17 07:02:00,66.7,65.8,30.28,NE,55,0.0,0.0,97,0.00,,,0.00,meteohub,2013-07-17 11:02:00,
2013-07-17 07:07:00,66.9,66.0,30.28,NE,55,0.0,0.0,97,0.00,,,0.00,meteohub,2013-07-17 11:07:00,
2013-07-17 07:12:00,66.9,66.4,30.28,WSW,258,0.0,0.0,98,0.00,,,0.00,meteohub,2013-07-17 11:12:00,
2013-07-17 07:17:00,66.9,66.4,30.28,WSW,258,0.0,0.0,98,0.00,,,0.00,meteohub,2013-07-17 11:17:00,
2013-07-17 07:22:00,66.7,66.2,30.28,NW,325,0.0,0.0,98,0.00,,,0.00,meteohub,2013-07-17 11:22:00,
2013-07-17 07:27:00,66.9,66.0,30.28,WNW,302,0.0,3.0,97,0.00,,,0.00,meteohub,2013-07-17 11:27:00,
2013-07-17 07:37:00,66.7,65.8,30.28,WNW,302,0.0,6.0,97,0.00,,,0.00,meteohub,2013-07-17 11:37:00,
2013-07-17 07:42:00,66.9,66.4,30.28,NNW,348,0.0,6.0,98,0.00,,,0.00,meteohub,2013-07-17 11:42:00,
2013-07-17 07:47:00,66.9,66.4,30.28,WNW,302,0.0,5.0,98,0.00,,,0.00,meteohub,2013-07-17 11:47:00,
2013-07-17 07:52:00,67.1,66.6,30.28,WNW,302,0.0,2.0,98,0.00,,,0.00,meteohub,2013-07-17 11:52:00,
2013-07-17 07:57:00,67.1,66.6,30.28,NW,325,0.0,0.0,98,0.00,,,0.00,meteohub,2013-07-17 11:57:00,
2013-07-17 08:02:00,67.3,66.7,30.31,SW,235,0.0,0.0,98,0.00,,,0.00,meteohub,2013-07-17 12:02:00,
2013-07-17 08:07:00,67.3,66.7,30.31,West,280,0.0,0.0,98,0.00,,,0.00,meteohub,2013-07-17 12:07:00,
2013-07-17 08:12:00,67.3,66.7,30.31,East,100,0.0,0.0,98,0.00,,,0.00,meteohub,2013-07-17 12:12:00,
2013-07-17 08:17:00,67.5,66.9,30.31,NNW,348,0.0,0.0,98,0.00,,,0.00,meteohub,2013-07-17 12:17:00,
2013-07-17 08:22:00,67.5,66.9,30.31,NNW,348,0.0,0.0,98,0.00,,,0.00,meteohub,2013-07-17 12:22:00,
2013-07-17 08:27:00,67.6,67.1,30.31,North,10,0.0,3.0,98,0.00,,,0.00,meteohub,2013-07-17 12:27:00,
2013-07-17 08:32:00,67.6,66.7,30.31,NNW,348,3.0,3.0,97,0.00,,,0.00,meteohub,2013-07-17 12:32:00,
2013-07-17 08:37:00,68.0,67.1,30.31,NNW,348,0.0,6.0,97,0.00,,,0.00,meteohub,2013-07-17 12:37:00,
2013-07-17 08:42:00,68.0,67.1,30.31,NNW,348,3.0,6.0,97,0.00,,,0.00,meteohub,2013-07-17 12:42:00,
2013-07-17 08:47:00,68.2,67.3,30.31,NW,325,0.0,5.0,97,0.00,,,0.00,meteohub,2013-07-17 12:47:00,
2013-07-17 08:52:00,68.4,67.5,30.31,NW,325,0.0,5.0,97,0.00,,,0.00,meteohub,2013-07-17 12:52:00,
2013-07-17 08:57:00,68.5,67.6,30.31,NE,55,0.0,4.0,97,0.00,,,0.00,meteohub,2013-07-17 12:57:00,
2013-07-17 09:02:00,68.7,67.8,30.31,NE,55,0.0,0.0,97,0.00,,,0.00,meteohub,2013-07-17 13:02:00,
2013-07-17 09:07:00,69.1,68.2,30.31,NE,55,0.0,0.0,97,0.00,,,0.00,meteohub,2013-07-17 13:07:00,
2013-07-17 09:12:00,69.3,68.4,30.31,NE,55,0.0,0.0,97,0.00,,,0.00,meteohub,2013-07-17 13:12:00,
2013-07-17 09:17:00,69.3,68.4,30.31,North,10,0.0,3.0,97,0.00,,,0.00,meteohub,2013-07-17 13:17:00,
2013-07-17 09:22:00,69.4,68.5,30.31,North,10,0.0,3.0,97,0.00,,,0.00,meteohub,2013-07-17 13:22:00,
2013-07-17 09:27:00,69.8,68.5,30.31,ESE,122,0.0,3.0,96,0.00,,,0.00,meteohub,2013-07-17 13:27:00,
2013-07-17 09:32:00,70.3,69.1,30.31,North,10,0.0,2.0,96,0.00,,,0.00,meteohub,2013-07-17 13:32:00,
2013-07-17 09:37:00,70.7,69.4,30.31,North,10,0.0,0.0,96,0.00,,,0.00,meteohub,2013-07-17 13:37:00,
2013-07-17 09:42:00,71.1,69.8,30.31,WNW,302,0.0,4.0,96,0.00,,,0.00,meteohub,2013-07-17 13:42:00,
2013-07-17 09:47:00,71.4,70.2,30.31,West,280,0.0,4.0,96,0.00,,,0.00,meteohub,2013-07-17 13:47:00,
2013-07-17 09:52:00,71.8,70.5,30.31,West,280,0.0,4.0,96,0.00,,,0.00,meteohub,2013-07-17 13:52:00,
2013-07-17 09:57:00,72.0,70.7,30.28,North,10,3.0,3.0,96,0.00,,,0.00,meteohub,2013-07-17 13:57:00,
2013-07-17 10:02:00,72.1,70.7,30.28,North,10,0.0,5.0,95,0.00,,,0.00,meteohub,2013-07-17 14:02:00,
2013-07-17 10:07:00,72.9,71.4,30.28,North,10,0.0,5.0,95,0.00,,,0.00,meteohub,2013-07-17 14:07:00,
2013-07-17 10:12:00,73.0,71.8,30.28,North,10,0.0,5.0,96,0.00,,,0.00,meteohub,2013-07-17 14:12:00,
2013-07-17 10:17:00,73.6,72.1,30.28,North,10,0.0,2.0,95,0.00,,,0.00,meteohub,2013-07-17 14:17:00,
2013-07-17 10:22:00,73.9,72.1,30.28,North,10,0.0,2.0,94,0.00,,,0.00,meteohub,2013-07-17 14:22:00,
2013-07-17 10:27:00,74.1,72.0,30.28,North,10,0.0,3.0,93,0.00,,,0.00,meteohub,2013-07-17 14:27:00,
2013-07-17 10:32:00,74.7,72.9,30.28,North,10,0.0,5.0,94,0.00,,,0.00,meteohub,2013-07-17 14:32:00,
2013-07-17 10:37:00,75.2,73.0,30.28,North,10,0.0,5.0,93,0.00,,,0.00,meteohub,2013-07-17 14:37:00,
2013-07-17 10:42:00,75.6,73.4,30.28,North,10,0.0,4.0,93,0.00,,,0.00,meteohub,2013-07-17 14:42:00,
2013-07-17 10:47:00,76.1,73.6,30.28,North,10,0.0,4.0,92,0.00,,,0.00,meteohub,2013-07-17 14:47:00,
2013-07-17 10:52:00,76.5,73.9,30.28,West,280,0.0,4.0,92,0.00,,,0.00,meteohub,2013-07-17 14:52:00,
2013-07-17 10:57:00,76.6,74.1,30.28,NW,325,3.0,4.0,92,0.00,,,0.00,meteohub,2013-07-17 14:57:00,
2013-07-17 11:02:00,77.2,74.3,30.28,NW,325,2.0,4.0,91,0.00,,,0.00,meteohub,2013-07-17 15:02:00,
2013-07-17 11:07:00,77.4,73.9,30.28,NW,325,2.0,6.0,89,0.00,,,0.00,meteohub,2013-07-17 15:07:00,
2013-07-17 11:17:00,78.1,74.5,30.25,NW,325,0.0,7.0,89,0.00,,,0.00,meteohub,2013-07-17 15:17:00,
2013-07-17 11:22:00,78.4,75.2,30.25,NW,325,0.0,5.0,90,0.00,,,0.00,meteohub,2013-07-17 15:22:00,
2013-07-17 11:27:00,78.6,75.4,30.25,NW,325,2.0,3.0,90,0.00,,,0.00,meteohub,2013-07-17 15:27:00,
2013-07-17 11:32:00,79.2,75.4,30.25,NW,325,0.0,2.0,88,0.00,,,0.00,meteohub,2013-07-17 15:32:00,
2013-07-17 11:37:00,79.9,75.4,30.25,NW,325,0.0,4.0,86,0.00,,,0.00,meteohub,2013-07-17 15:37:00,
2013-07-17 11:42:00,80.4,74.8,30.28,NW,325,0.0,4.0,83,0.00,,,0.00,meteohub,2013-07-17 15:42:00,
2013-07-17 11:47:00,80.6,75.4,30.28,NW,325,11.0,11.0,84,0.00,,,0.00,meteohub,2013-07-17 15:47:00,
2013-07-17 11:52:00,81.0,73.4,30.28,NNW,348,5.0,11.0,78,0.00,,,0.00,meteohub,2013-07-17 15:52:00,
2013-07-17 11:57:00,81.3,75.2,30.25,WSW,258,5.0,11.0,82,0.00,,,0.00,meteohub,2013-07-17 15:57:00,
2013-07-17 12:07:00,81.5,73.6,30.25,NNE,32,6.0,6.0,77,0.00,,,0.00,meteohub,2013-07-17 16:07:00,
2013-07-17 12:12:00,82.2,73.6,30.31,NE,55,7.0,8.0,75,0.00,,,0.00,meteohub,2013-07-17 16:12:00,
2013-07-17 12:17:00,82.8,72.9,30.31,NNW,348,4.0,8.0,72,0.00,,,0.00,meteohub,2013-07-17 16:17:00,
2013-07-17 12:22:00,82.9,73.0,30.31,NNW,348,3.0,8.0,72,0.00,,,0.00,meteohub,2013-07-17 16:22:00,
2013-07-17 12:27:00,82.9,74.7,30.28,NW,325,10.0,10.0,76,0.00,,,0.00,meteohub,2013-07-17 16:27:00,
2013-07-17 12:32:00,83.5,73.6,30.28,NNW,348,10.0,10.0,72,0.00,,,0.00,meteohub,2013-07-17 16:32:00,
2013-07-17 12:37:00,83.7,73.2,30.28,North,10,2.0,10.0,71,0.00,,,0.00,meteohub,2013-07-17 16:37:00,
2013-07-17 12:42:00,84.2,73.4,30.28,NNW,348,6.0,10.0,70,0.00,,,0.00,meteohub,2013-07-17 16:42:00,
2013-07-17 12:47:00,84.4,72.7,30.28,North,10,6.0,13.0,68,0.00,,,0.00,meteohub,2013-07-17 16:47:00,
2013-07-17 12:52:00,84.6,72.0,30.28,NW,325,5.0,13.0,66,0.00,,,0.00,meteohub,2013-07-17 16:52:00,
2013-07-17 12:57:00,84.0,71.4,30.28,NNW,348,4.0,11.0,66,0.00,,,0.00,meteohub,2013-07-17 16:57:00,
2013-07-17 13:02:00,83.8,71.2,30.28,NW,325,5.0,13.0,66,0.00,,,0.00,meteohub,2013-07-17 17:02:00,
2013-07-17 13:07:00,83.8,72.5,30.28,NW,325,2.0,13.0,69,0.00,,,0.00,meteohub,2013-07-17 17:07:00,
2013-07-17 13:12:00,83.8,71.8,30.25,NNW,348,8.0,12.0,67,0.00,,,0.00,meteohub,2013-07-17 17:12:00,
2013-07-17 13:17:00,83.8,72.5,30.25,WNW,302,2.0,9.0,69,0.00,,,0.00,meteohub,2013-07-17 17:17:00,
2013-07-17 13:27:00,84.6,74.1,30.25,West,280,4.0,8.0,71,0.00,,,0.00,meteohub,2013-07-17 17:27:00,
2013-07-17 13:32:00,84.9,72.7,30.25,WSW,258,0.0,6.0,67,0.00,,,0.00,meteohub,2013-07-17 17:32:00,
2013-07-17 13:37:00,85.6,73.4,30.25,WSW,258,0.0,7.0,67,0.00,,,0.00,meteohub,2013-07-17 17:37:00,
2013-07-17 13:42:00,85.5,73.8,30.25,North,10,5.0,7.0,68,0.00,,,0.00,meteohub,2013-07-17 17:42:00,
2013-07-17 13:47:00,86.0,72.3,30.25,West,280,2.0,7.0,64,0.00,,,0.00,meteohub,2013-07-17 17:47:00,
2013-07-17 13:52:00,85.8,72.7,30.25,NNW,348,2.0,7.0,65,0.00,,,0.00,meteohub,2013-07-17 17:52:00,
2013-07-17 14:02:00,86.0,72.3,30.22,NW,325,9.0,9.0,64,0.00,,,0.00,meteohub,2013-07-17 18:02:00,
2013-07-17 14:07:00,86.2,72.5,30.22,East,100,5.0,10.0,64,0.00,,,0.00,meteohub,2013-07-17 18:07:00,
2013-07-17 14:12:00,86.2,72.1,30.19,SSE,168,4.0,10.0,63,0.00,,,0.00,meteohub,2013-07-17 18:12:00,
2013-07-17 14:17:00,85.5,71.4,30.19,West,280,0.0,10.0,63,0.00,,,0.00,meteohub,2013-07-17 18:17:00,
2013-07-17 14:22:00,86.5,71.1,30.19,North,10,5.0,8.0,60,0.00,,,0.00,meteohub,2013-07-17 18:22:00,
2013-07-17 14:27:00,86.7,69.6,30.22,North,10,5.0,13.0,57,0.00,,,0.00,meteohub,2013-07-17 18:27:00,
2013-07-17 14:32:00,86.4,71.2,30.22,SSE,168,6.0,13.0,61,0.00,,,0.00,meteohub,2013-07-17 18:32:00,
2013-07-17 14:37:00,85.5,70.5,30.22,ESE,122,4.0,10.0,61,0.00,,,0.00,meteohub,2013-07-17 18:37:00,
2013-07-17 14:42:00,84.4,70.0,30.25,SSE,168,3.0,10.0,62,0.00,,,0.00,meteohub,2013-07-17 18:42:00,
2013-07-17 14:47:00,84.4,70.0,30.25,SSE,168,5.0,7.0,62,0.00,,,0.00,meteohub,2013-07-17 18:47:00,
2013-07-17 14:52:00,83.5,69.6,30.25,SE,145,5.0,7.0,63,0.00,,,0.00,meteohub,2013-07-17 18:52:00,
2013-07-17 15:02:00,82.8,70.7,30.22,South,190,4.0,7.0,67,0.00,,,0.00,meteohub,2013-07-17 19:02:00,
2013-07-17 15:07:00,82.6,70.5,30.22,SE,145,2.0,7.0,67,0.00,,,0.00,meteohub,2013-07-17 19:07:00,
2013-07-17 15:12:00,82.4,70.7,30.22,East,100,3.0,7.0,68,0.00,,,0.00,meteohub,2013-07-17 19:12:00,
2013-07-17 15:17:00,82.2,70.5,30.22,ESE,122,3.0,8.0,68,0.00,,,0.00,meteohub,2013-07-17 19:17:00,
2013-07-17 15:27:00,82.0,70.9,30.22,South,190,4.0,8.0,69,0.00,,,0.00,meteohub,2013-07-17 19:27:00,
2013-07-17 15:32:00,82.0,70.9,30.22,SSE,168,4.0,6.0,69,0.00,,,0.00,meteohub,2013-07-17 19:32:00,
2013-07-17 15:37:00,82.0,71.2,30.22,ESE,122,2.0,6.0,70,0.00,,,0.00,meteohub,2013-07-17 19:37:00,
2013-07-17 15:42:00,82.0,71.8,30.22,ENE,78,0.0,4.0,71,0.00,,,0.00,meteohub,2013-07-17 19:42:00,
2013-07-17 15:47:00,82.0,71.8,30.22,WNW,302,0.0,4.0,71,0.00,,,0.00,meteohub,2013-07-17 19:47:00,
2013-07-17 15:52:00,82.4,71.6,30.22,WNW,302,0.0,3.0,70,0.00,,,0.00,meteohub,2013-07-17 19:52:00,
2013-07-17 15:57:00,82.2,71.4,30.19,SSW,212,3.0,6.0,70,0.00,,,0.00,meteohub,2013-07-17 19:57:00,
2013-07-17 16:02:00,82.2,71.1,30.19,SSW,212,4.0,6.0,69,0.00,,,0.00,meteohub,2013-07-17 20:02:00,
2013-07-17 16:12:00,82.9,72.5,30.19,SE,145,0.0,5.0,71,0.00,,,0.00,meteohub,2013-07-17 20:12:00,
2013-07-17 16:17:00,83.3,72.5,30.19,ESE,122,0.0,5.0,70,0.00,,,0.00,meteohub,2013-07-17 20:17:00,
2013-07-17 16:22:00,83.7,72.3,30.19,West,280,3.0,5.0,69,0.00,,,0.00,meteohub,2013-07-17 20:22:00,
2013-07-17 16:32:00,84.6,74.1,30.22,SSE,168,2.0,5.0,71,0.00,,,0.00,meteohub,2013-07-17 20:32:00,
2013-07-17 16:37:00,85.1,74.1,30.22,SE,145,3.0,5.0,70,0.00,,,0.00,meteohub,2013-07-17 20:37:00,
2013-07-17 16:42:00,85.1,73.4,30.19,SE,145,0.0,4.0,68,0.00,,,0.00,meteohub,2013-07-17 20:42:00,
2013-07-17 16:47:00,85.1,73.4,30.19,SE,145,0.0,4.0,68,0.00,,,0.00,meteohub,2013-07-17 20:47:00,
2013-07-17 16:57:00,85.6,73.9,30.19,North,10,5.0,5.0,68,0.00,,,0.00,meteohub,2013-07-17 20:57:00,
2013-07-17 17:02:00,85.8,73.6,30.19,NW,325,2.0,6.0,67,0.00,,,0.00,meteohub,2013-07-17 21:02:00,
2013-07-17 17:07:00,86.5,73.8,30.19,SE,145,6.0,6.0,66,0.00,,,0.00,meteohub,2013-07-17 21:07:00,
2013-07-17 17:12:00,85.8,71.8,30.19,ENE,78,5.0,6.0,63,0.00,,,0.00,meteohub,2013-07-17 21:12:00,
2013-07-17 17:17:00,85.6,70.7,30.19,SSW,212,3.0,11.0,61,0.00,,,0.00,meteohub,2013-07-17 21:17:00,
2013-07-17 17:22:00,86.5,72.5,30.19,SW,235,2.0,11.0,63,0.00,,,0.00,meteohub,2013-07-17 21:22:00,
2013-07-17 17:27:00,85.3,71.2,30.19,NNW,348,3.0,11.0,63,0.00,,,0.00,meteohub,2013-07-17 21:27:00,
2013-07-17 17:32:00,84.7,69.8,30.19,East,100,3.0,5.0,61,0.00,,,0.00,meteohub,2013-07-17 21:32:00,
2013-07-17 17:37:00,84.6,71.1,30.19,SSE,168,5.0,5.0,64,0.00,,,0.00,meteohub,2013-07-17 21:37:00,
2013-07-17 17:42:00,84.4,71.2,30.16,SE,145,5.0,5.0,65,0.00,,,0.00,meteohub,2013-07-17 21:42:00,
2013-07-17 17:47:00,84.0,71.4,30.16,SE,145,3.0,5.0,66,0.00,,,0.00,meteohub,2013-07-17 21:47:00,
2013-07-17 17:52:00,83.3,69.8,30.16,East,100,7.0,7.0,64,0.00,,,0.00,meteohub,2013-07-17 21:52:00,
2013-07-17 17:57:00,83.1,70.2,30.16,SE,145,0.0,9.0,65,0.00,,,0.00,meteohub,2013-07-17 21:57:00,
2013-07-17 18:02:00,82.9,70.3,30.16,NNE,32,4.0,9.0,66,0.00,,,0.00,meteohub,2013-07-17 22:02:00,
2013-07-17 18:07:00,82.9,70.9,30.16,South,190,0.0,7.0,67,0.00,,,0.00,meteohub,2013-07-17 22:07:00,
2013-07-17 18:12:00,82.8,70.7,30.16,South,190,2.0,5.0,67,0.00,,,0.00,meteohub,2013-07-17 22:12:00,
2013-07-17 18:17:00,82.6,70.5,30.16,SE,145,3.0,5.0,67,0.00,,,0.00,meteohub,2013-07-17 22:17:00,
2013-07-17 18:22:00,82.6,70.5,30.16,SE,145,2.0,6.0,67,0.00,,,0.00,meteohub,2013-07-17 22:22:00,
2013-07-17 18:27:00,82.6,70.9,30.19,SE,145,0.0,6.0,68,0.00,,,0.00,meteohub,2013-07-17 22:27:00,
2013-07-17 18:32:00,82.4,70.7,30.19,SE,145,0.0,6.0,68,0.00,,,0.00,meteohub,2013-07-17 22:32:00,
2013-07-17 18:37:00,82.0,70.3,30.19,SE,145,0.0,3.0,68,0.00,,,0.00,meteohub,2013-07-17 22:37:00,
2013-07-17 18:42:00,81.9,70.7,30.19,SE,145,0.0,0.0,69,0.00,,,0.00,meteohub,2013-07-17 22:42:00,
2013-07-17 18:47:00,81.7,70.5,30.19,SE,145,3.0,3.0,69,0.00,,,0.00,meteohub,2013-07-17 22:47:00,
2013-07-17 18:52:00,81.3,70.2,30.19,SE,145,4.0,4.0,69,0.00,,,0.00,meteohub,2013-07-17 22:52:00,
2013-07-17 18:57:00,81.1,70.0,30.19,SE,145,2.0,4.0,69,0.00,,,0.00,meteohub,2013-07-17 22:57:00,
2013-07-17 19:02:00,81.0,70.2,30.19,SSE,168,4.0,4.0,70,0.00,,,0.00,meteohub,2013-07-17 23:02:00,
2013-07-17 19:07:00,80.6,70.0,30.19,SSE,168,4.0,4.0,70,0.00,,,0.00,meteohub,2013-07-17 23:07:00,
2013-07-17 19:12:00,80.4,70.2,30.19,SE,145,3.0,4.0,71,0.00,,,0.00,meteohub,2013-07-17 23:12:00,
2013-07-17 19:17:00,80.2,70.0,30.19,SE,145,4.0,4.0,71,0.00,,,0.00,meteohub,2013-07-17 23:17:00,
2013-07-17 19:22:00,80.1,70.2,30.19,SE,145,2.0,5.0,72,0.00,,,0.00,meteohub,2013-07-17 23:22:00,
2013-07-17 19:27:00,79.9,70.0,30.19,SE,145,3.0,5.0,72,0.00,,,0.00,meteohub,2013-07-17 23:27:00,
2013-07-17 19:32:00,79.7,69.8,30.19,SSE,168,3.0,5.0,72,0.00,,,0.00,meteohub,2013-07-17 23:32:00,
2013-07-17 19:37:00,79.3,70.0,30.19,SE,145,0.0,4.0,73,0.00,,,0.00,meteohub,2013-07-17 23:37:00,
2013-07-17 19:47:00,79.0,69.6,30.19,SE,145,3.0,4.0,73,0.00,,,0.00,meteohub,2013-07-17 23:47:00,
2013-07-17 19:52:00,78.8,69.8,30.19,SE,145,0.0,4.0,74,0.00,,,0.00,meteohub,2013-07-17 23:52:00,
2013-07-17 19:57:00,78.6,70.0,30.19,South,190,0.0,4.0,75,0.00,,,0.00,meteohub,2013-07-17 23:57:00,
2013-07-17 20:02:00,78.3,69.6,30.19,ESE,122,3.0,4.0,75,0.00,,,0.00,meteohub,2013-07-18 00:02:00,
2013-07-17 20:07:00,78.1,69.4,30.19,SSE,168,0.0,6.0,75,0.00,,,0.00,meteohub,2013-07-18 00:07:00,
2013-07-17 20:17:00,77.7,69.1,30.19,SE,145,4.0,5.0,75,0.00,,,0.00,meteohub,2013-07-18 00:17:00,
2013-07-17 20:22:00,77.7,69.6,30.19,SE,145,4.0,5.0,76,0.00,,,0.00,meteohub,2013-07-18 00:22:00,
2013-07-17 20:32:00,77.4,69.3,30.19,North,10,0.0,5.0,76,0.00,,,0.00,meteohub,2013-07-18 00:32:00,
2013-07-17 20:37:00,77.0,69.3,30.19,North,10,0.0,4.0,77,0.00,,,0.00,meteohub,2013-07-18 00:37:00,
2013-07-17 20:47:00,76.5,69.1,30.22,NE,55,0.0,5.0,78,0.00,,,0.00,meteohub,2013-07-18 00:47:00,
2013-07-17 20:52:00,76.3,69.3,30.22,ESE,122,5.0,5.0,79,0.00,,,0.00,meteohub,2013-07-18 00:52:00,
2013-07-17 20:57:00,75.7,68.4,30.22,WSW,258,5.0,7.0,78,0.00,,,0.00,meteohub,2013-07-18 00:57:00,
2013-07-17 21:02:00,75.6,66.7,30.19,ESE,122,3.0,7.0,74,0.00,,,0.00,meteohub,2013-07-18 01:02:00,
2013-07-17 21:07:00,75.4,66.9,30.19,SE,145,2.0,7.0,75,0.00,,,0.00,meteohub,2013-07-18 01:07:00,
2013-07-17 21:12:00,75.2,66.4,30.19,South,190,4.0,7.0,74,0.00,,,0.00,meteohub,2013-07-18 01:12:00,
2013-07-17 21:17:00,74.8,66.0,30.19,East,100,3.0,5.0,74,0.00,,,0.00,meteohub,2013-07-18 01:17:00,
2013-07-17 21:27:00,74.5,64.9,30.19,SSE,168,4.0,6.0,72,0.00,,,0.00,meteohub,2013-07-18 01:27:00,
2013-07-17 21:32:00,74.7,65.5,30.19,SSE,168,4.0,6.0,73,0.00,,,0.00,meteohub,2013-07-18 01:32:00,
2013-07-17 21:37:00,74.1,65.3,30.19,South,190,5.0,5.0,74,0.00,,,0.00,meteohub,2013-07-18 01:37:00,
2013-07-17 21:42:00,74.1,65.3,30.19,SSE,168,3.0,6.0,74,0.00,,,0.00,meteohub,2013-07-18 01:42:00,
2013-07-17 21:47:00,73.8,65.3,30.19,ESE,122,3.0,6.0,75,0.00,,,0.00,meteohub,2013-07-18 01:47:00,
2013-07-17 21:52:00,73.8,65.7,30.19,SE,145,3.0,6.0,76,0.00,,,0.00,meteohub,2013-07-18 01:52:00,
2013-07-17 21:57:00,73.6,65.5,30.19,East,100,2.0,5.0,76,0.00,,,0.00,meteohub,2013-07-18 01:57:00,
2013-07-17 22:02:00,73.4,65.3,30.19,East,100,0.0,4.0,76,0.00,,,0.00,meteohub,2013-07-18 02:02:00,
2013-07-17 22:07:00,73.4,65.3,30.19,SE,145,2.0,4.0,76,0.00,,,0.00,meteohub,2013-07-18 02:07:00,
2013-07-17 22:12:00,73.2,65.1,30.22,SSE,168,0.0,4.0,76,0.00,,,0.00,meteohub,2013-07-18 02:12:00,
2013-07-17 22:17:00,73.0,65.5,30.22,SSE,168,0.0,4.0,77,0.00,,,0.00,meteohub,2013-07-18 02:17:00,
2013-07-17 22:22:00,72.9,64.9,30.22,SE,145,3.0,3.0,76,0.00,,,0.00,meteohub,2013-07-18 02:22:00,
2013-07-17 22:27:00,72.9,64.9,30.22,SE,145,2.0,3.0,76,0.00,,,0.00,meteohub,2013-07-18 02:27:00,
2013-07-17 22:32:00,72.7,64.8,30.22,South,190,4.0,4.0,76,0.00,,,0.00,meteohub,2013-07-18 02:32:00,
2013-07-17 22:37:00,72.3,64.8,30.22,SE,145,0.0,4.0,77,0.00,,,0.00,meteohub,2013-07-18 02:37:00,
2013-07-17 22:42:00,72.1,64.2,30.22,SSE,168,0.0,4.0,76,0.00,,,0.00,meteohub,2013-07-18 02:42:00,
2013-07-17 22:47:00,72.1,64.2,30.22,SSE,168,0.0,4.0,76,0.00,,,0.00,meteohub,2013-07-18 02:47:00,
2013-07-17 22:52:00,72.0,64.0,30.22,SSE,168,0.0,0.0,76,0.00,,,0.00,meteohub,2013-07-18 02:52:00,
2013-07-17 22:57:00,71.8,63.9,30.22,SE,145,4.0,0.0,76,0.00,,,0.00,meteohub,2013-07-18 02:57:00,
2013-07-17 23:02:00,71.8,64.2,30.22,SE,145,3.0,4.0,77,0.00,,,0.00,meteohub,2013-07-18 03:02:00,
2013-07-17 23:07:00,71.6,64.0,30.22,SE,145,0.0,5.0,77,0.00,,,0.00,meteohub,2013-07-18 03:07:00,
2013-07-17 23:12:00,71.6,64.4,30.22,ESE,122,0.0,5.0,78,0.00,,,0.00,meteohub,2013-07-18 03:12:00,
2013-07-17 23:17:00,71.4,64.2,30.22,ESE,122,0.0,4.0,78,0.00,,,0.00,meteohub,2013-07-18 03:17:00,
2013-07-17 23:22:00,71.4,64.2,30.22,ESE,122,0.0,0.0,78,0.00,,,0.00,meteohub,2013-07-18 03:22:00,
2013-07-17 23:27:00,71.2,64.0,30.19,SE,145,0.0,0.0,78,0.00,,,0.00,meteohub,2013-07-18 03:27:00,
2013-07-17 23:32:00,71.1,64.2,30.19,East,100,0.0,0.0,79,0.00,,,0.00,meteohub,2013-07-18 03:32:00,
2013-07-17 23:37:00,70.9,64.0,30.19,East,100,0.0,0.0,79,0.00,,,0.00,meteohub,2013-07-18 03:37:00,
2013-07-17 23:42:00,70.7,63.9,30.22,SSE,168,0.0,0.0,79,0.00,,,0.00,meteohub,2013-07-18 03:42:00,
2013-07-17 23:47:00,70.7,64.2,30.22,SSE,168,0.0,0.0,80,0.00,,,0.00,meteohub,2013-07-18 03:47:00,
2013-07-17 23:52:00,70.5,64.0,30.22,SE,145,0.0,0.0,80,0.00,,,0.00,meteohub,2013-07-18 03:52:00,
2013-07-17 23:57:00,70.5,64.0,30.22,ENE,78,2.0,0.0,80,0.00,,,0.00,meteohub,2013-07-18 03:57:00,